Time;durP1;ratioP1;P1;durP2;ratioP2;P2;SDS_P1;SDS_P2;PMS_P1;PMS_P2;Temp;Humidity;BMP_temperature;BMP_pressure;BME280_temperature;BME280_humidity;BME280_pressure;Samples;Min_cycle;Max_cycle;Signal;HPM_P1;HPM_P2
2023/10/24 00:01:22;;;;;;;0.63;0.63;;;18.20;73.80;;;;;;6206678;23;20597;-84
2023/10/24 00:03:51;;;;;;;12.00;1.37;;;18.30;74.00;;;;;;6206444;23;20219;-84
2023/10/24 00:06:20;;;;;;;1.27;0.73;;;18.20;73.70;;;;;;6207511;23;20166;-85
2023/10/24 00:08:48;;;;;;;3.37;1.63;;;18.20;73.60;;;;;;6208093;23;20163;-85
2023/10/24 00:11:18;;;;;;;1.50;0.80;;;18.20;73.60;;;;;;6207774;23;20222;-85
2023/10/24 00:13:46;;;;;;;0.90;0.90;;;18.20;73.50;;;;;;6206702;23;20171;-85
2023/10/24 00:16:16;;;;;;;0.70;0.70;;;18.10;73.30;;;;;;6206458;23;20542;-84
2023/10/24 00:18:46;;;;;;;1.37;1.13;;;18.20;73.30;;;;;;6207550;23;20246;-84
2023/10/24 00:21:15;;;;;;;1.10;1.00;;;18.20;73.60;;;;;;6209496;23;20167;-85
2023/10/24 00:23:43;;;;;;;5.97;1.97;;;18.10;73.80;;;;;;6209938;23;20713;-86
2023/10/24 00:26:12;;;;;;;1.57;0.73;;;18.10;73.70;;;;;;6212106;23;20170;-87
2023/10/24 00:28:41;;;;;;;1.27;1.13;;;18.10;73.70;;;;;;6209287;23;20250;-86
2023/10/24 00:31:09;;;;;;;1.17;1.00;;;18.10;73.60;;;;;;6208241;23;20229;-85
2023/10/24 00:33:38;;;;;;;1.97;0.93;;;18.10;73.60;;;;;;6211477;23;20227;-85
2023/10/24 00:36:09;;;;;;;1.57;1.47;;;18.10;73.40;;;;;;6210035;23;20274;-84
2023/10/24 00:38:37;;;;;;;1.27;1.17;;;18.10;73.40;;;;;;6207921;23;20278;-85
2023/10/24 00:41:06;;;;;;;1.23;0.90;;;18.10;73.40;;;;;;6208571;23;20258;-86
2023/10/24 00:43:36;;;;;;;0.50;0.50;;;18.10;73.30;;;;;;6207509;23;20205;-84
2023/10/24 00:46:06;;;;;;;0.63;0.60;;;18.10;73.30;;;;;;6209168;23;20171;-84
2023/10/24 00:48:35;;;;;;;0.53;0.53;;;18.10;73.30;;;;;;6210161;23;20189;-86
2023/10/24 00:51:04;;;;;;;2.37;1.27;;;18.10;73.30;;;;;;6211262;23;20170;-85
2023/10/24 00:53:35;;;;;;;1.10;0.83;;;18.10;73.40;;;;;;6209892;23;20177;-85
2023/10/24 00:56:05;;;;;;;1.90;1.10;;;18.10;73.30;;;;;;6209367;23;20167;-85
2023/10/24 00:58:35;;;;;;;1.13;1.03;;;18.00;73.30;;;;;;6209621;23;20201;-83
2023/10/24 01:01:06;;;;;;;1.63;1.27;;;18.00;73.30;;;;;;6207620;23;20163;-85
2023/10/24 01:03:35;;;;;;;2.47;1.13;;;18.00;73.10;;;;;;6210304;23;20190;-86
2023/10/24 01:06:03;;;;;;;2.70;2.20;;;18.00;73.10;;;;;;6210128;23;20171;-85
2023/10/24 01:08:32;;;;;;;0.80;0.77;;;17.90;73.10;;;;;;6210762;23;20171;-83
2023/10/24 01:11:02;;;;;;;2.67;1.50;;;17.90;73.10;;;;;;6210682;23;20182;-87
2023/10/24 01:13:32;;;;;;;2.37;1.30;;;17.90;73.50;;;;;;6209532;23;20167;-86
2023/10/24 01:16:01;;;;;;;5.53;1.37;;;17.80;74.00;;;;;;6209587;23;20175;-85
2023/10/24 01:18:29;;;;;;;1.13;0.93;;;17.70;73.90;;;;;;6212991;23;20178;-85
2023/10/24 01:20:59;;;;;;;1.87;1.37;;;17.70;73.80;;;;;;6210692;23;20247;-85
2023/10/24 01:23:31;;;;;;;0.73;0.73;;;17.70;73.80;;;;;;6212651;23;20665;-84
2023/10/24 01:26:00;;;;;;;1.10;0.67;;;17.70;73.70;;;;;;6209971;23;20175;-84
2023/10/24 01:28:30;;;;;;;0.73;0.73;;;17.60;73.80;;;;;;6211302;23;20237;-85
2023/10/24 01:30:59;;;;;;;1.70;1.10;;;17.60;73.90;;;;;;6229539;23;20205;-86
2023/10/24 01:33:29;;;;;;;1.53;0.93;;;17.60;73.80;;;;;;6229336;23;20181;-85
2023/10/24 01:35:59;;;;;;;1.97;1.53;;;17.60;73.80;;;;;;6229984;23;20181;-86
2023/10/24 01:38:28;;;;;;;3.13;2.03;;;17.60;74.30;;;;;;6231311;23;20171;-85
2023/10/24 01:40:57;;;;;;;0.77;0.73;;;17.50;74.10;;;;;;6233414;23;20496;-86
2023/10/24 01:43:40;;;;;;;0.60;0.60;;;17.50;74.10;;;;;;6236327;23;20182;-85
2023/10/24 01:46:13;;;;;;;1.30;1.13;;;17.40;74.20;;;;;;6235806;23;20167;-85
2023/10/24 01:49:07;;;;;;;0.83;0.83;;;17.40;74.40;;;;;;6234723;23;20155;-86
2023/10/24 01:51:43;;;;;;;1.20;1.10;;;17.30;74.20;;;;;;6221918;23;20254;-85
2023/10/24 01:54:13;;;;;;;1.13;1.03;;;17.40;74.10;;;;;;6211580;23;20163;-85
2023/10/24 01:56:42;;;;;;;1.90;1.47;;;17.30;74.20;;;;;;6211993;23;20163;-85
2023/10/24 01:59:11;;;;;;;2.30;1.00;;;17.30;74.20;;;;;;6210988;23;20173;-85
2023/10/24 02:01:39;;;;;;;1.90;0.90;;;17.30;74.20;;;;;;6211566;23;20189;-84
2023/10/24 02:04:08;;;;;;;1.47;1.20;;;17.30;74.40;;;;;;6210779;23;20191;-83
2023/10/24 02:06:44;;;;;;;1.03;0.80;;;17.30;74.20;;;;;;6210567;23;20171;-84
2023/10/24 02:09:14;;;;;;;0.83;0.83;;;17.30;74.10;;;;;;6210248;23;20845;-84
2023/10/24 02:11:42;;;;;;;0.80;0.80;;;17.30;74.10;;;;;;6210576;23;20167;-85
2023/10/24 02:14:12;;;;;;;2.03;1.83;;;17.30;74.00;;;;;;6211242;23;20163;-87
2023/10/24 02:16:40;;;;;;;1.03;0.97;;;17.20;73.90;;;;;;6209198;23;20274;-85
2023/10/24 02:19:09;;;;;;;1.33;1.23;;;17.20;75.00;;;;;;6208532;23;20175;-85
2023/10/24 02:21:38;;;;;;;1.47;1.10;;;17.20;74.20;;;;;;6210310;23;20177;-86
2023/10/24 02:24:07;;;;;;;1.13;0.93;;;17.20;74.20;;;;;;6208983;23;20190;-87
2023/10/24 02:26:38;;;;;;;2.07;1.03;;;17.10;74.20;;;;;;6211462;23;20171;-85
2023/10/24 02:29:06;;;;;;;1.93;1.80;;;17.10;74.30;;;;;;6207794;23;20169;-86
2023/10/24 02:31:38;;;;;;;0.87;0.70;;;17.10;74.50;;;;;;6206348;23;20416;-85
2023/10/24 02:34:07;;;;;;;1.80;1.30;;;17.00;74.30;;;;;;6206274;23;20166;-86
2023/10/24 02:36:37;;;;;;;3.80;0.60;;;17.00;74.40;;;;;;6209198;23;20167;-86
2023/10/24 02:39:06;;;;;;;5.10;2.10;;;17.00;74.70;;;;;;6208062;23;20854;-85
2023/10/24 02:41:37;;;;;;;1.10;0.77;;;17.00;75.10;;;;;;6207760;23;20171;-87
2023/10/24 02:44:06;;;;;;;1.03;0.87;;;16.90;75.10;;;;;;6208074;23;20271;-86
2023/10/24 02:46:35;;;;;;;2.50;1.20;;;16.90;75.00;;;;;;6206919;23;20167;-84
2023/10/24 02:49:04;;;;;;;2.43;1.10;;;16.90;75.20;;;;;;6208683;23;20163;-85
2023/10/24 02:51:33;;;;;;;1.63;1.03;;;16.80;75.40;;;;;;6210665;23;20691;-86
2023/10/24 02:54:02;;;;;;;1.77;1.00;;;16.80;75.50;;;;;;6206934;23;20175;-85
2023/10/24 02:56:31;;;;;;;3.07;0.80;;;16.80;75.50;;;;;;6208756;23;20186;-87
2023/10/24 02:59:01;;;;;;;1.13;1.03;;;16.80;75.40;;;;;;6209220;23;20163;-86
2023/10/24 03:01:29;;;;;;;2.87;1.70;;;16.70;75.60;;;;;;6208380;23;20625;-84
2023/10/24 03:03:59;;;;;;;2.93;1.80;;;16.70;75.60;;;;;;6208494;23;20569;-87
2023/10/24 03:06:29;;;;;;;1.73;0.93;;;16.70;75.70;;;;;;6209703;23;20203;-86
2023/10/24 03:08:57;;;;;;;1.97;0.97;;;16.60;75.60;;;;;;6208605;23;20602;-85
2023/10/24 03:11:27;;;;;;;2.87;1.37;;;16.60;75.80;;;;;;6207963;23;20629;-87
2023/10/24 03:13:57;;;;;;;1.20;1.10;;;16.60;76.10;;;;;;6209199;23;20168;-86
2023/10/24 03:16:28;;;;;;;0.67;0.67;;;16.60;76.20;;;;;;6208045;23;20246;-86
2023/10/24 03:18:59;;;;;;;1.93;1.80;;;16.50;76.30;;;;;;6208668;23;20250;-85
2023/10/24 03:21:28;;;;;;;1.60;1.13;;;16.50;76.50;;;;;;6205707;23;20178;-85
2023/10/24 03:23:56;;;;;;;2.00;1.47;;;16.50;76.90;;;;;;6205981;23;20194;-84
2023/10/24 03:26:25;;;;;;;1.20;1.10;;;16.50;77.10;;;;;;6208062;23;20559;-85
2023/10/24 03:28:53;;;;;;;5.60;1.23;;;16.50;77.10;;;;;;6206132;23;20166;-85
2023/10/24 03:31:22;;;;;;;1.50;1.30;;;16.50;76.90;;;;;;6207874;23;20206;-85
2023/10/24 03:33:53;;;;;;;0.63;0.60;;;16.40;76.80;;;;;;6205641;23;20171;-87
2023/10/24 03:36:21;;;;;;;0.40;0.40;;;16.50;76.80;;;;;;6205112;23;20175;-86
2023/10/24 03:39:33;;;;;;;0.80;0.80;;;16.50;76.70;;;;;;6207961;23;20175;-85
2023/10/24 03:42:23;;;;;;;1.50;1.13;;;16.50;76.60;;;;;;5972300;24;20313;-84
2023/10/24 03:44:53;;;;;;;4.40;1.23;;;16.50;76.50;;;;;;6114033;23;20199;-85
2023/10/24 03:47:21;;;;;;;2.93;1.47;;;16.50;76.50;;;;;;6114332;23;20179;-84
2023/10/24 03:49:51;;;;;;;1.57;1.10;;;16.50;76.50;;;;;;6116610;23;20236;-85
2023/10/24 03:52:20;;;;;;;0.63;0.63;;;16.50;76.50;;;;;;6117502;23;20892;-84
2023/10/24 03:54:50;;;;;;;4.97;2.13;;;16.50;76.50;;;;;;6114557;23;20177;-86
2023/10/24 03:57:18;;;;;;;3.33;1.63;;;16.50;76.60;;;;;;6119962;23;20173;-84
2023/10/24 03:59:47;;;;;;;5.03;1.23;;;16.50;76.60;;;;;;6119126;23;20179;-85
2023/10/24 04:02:18;;;;;;;1.23;1.13;;;16.50;76.60;;;;;;6114733;23;20173;-84
2023/10/24 04:04:48;;;;;;;0.60;0.60;;;16.50;76.50;;;;;;6115529;23;20184;-84
2023/10/24 04:07:19;;;;;;;1.63;1.10;;;16.50;76.60;;;;;;6113007;23;20176;-86
2023/10/24 04:11:17;;;;;;;;;;;;;;;;;;;;;
2023/10/24 04:34:41;;;;;;;3.90;1.53;;;16.30;78.10;;;;;;6199306;22;20215;-85
2023/10/24 04:46:17;;;;;;;0.90;0.87;;;16.20;78.60;;;;;;6145781;23;20432;-85
2023/10/24 04:48:52;;;;;;;1.70;1.50;;;16.20;78.40;;;;;;6146649;23;20168;-85
2023/10/24 04:51:26;;;;;;;0.30;0.30;;;16.20;78.40;;;;;;6150278;23;20184;-84
2023/10/24 04:54:03;;;;;;;1.40;1.30;;;16.20;78.70;;;;;;6148992;23;20480;-86
2023/10/24 04:56:34;;;;;;;0.80;0.80;;;16.20;78.60;;;;;;6118118;23;20180;-87
2023/10/24 04:59:04;;;;;;;1.23;1.17;;;16.20;78.40;;;;;;6147661;23;20165;-85
2023/10/24 05:01:38;;;;;;;5.43;1.20;;;16.20;78.30;;;;;;6149948;23;20252;-85
2023/10/24 05:04:16;;;;;;;0.73;0.73;;;16.20;78.20;;;;;;6147561;23;20207;-86
2023/10/24 05:37:07;;;;;;;1.80;1.40;;;16.40;79.00;;;;;;6095171;23;20199;-81
2023/10/24 05:39:38;;;;;;;1.00;0.83;;;16.50;79.60;;;;;;6093228;23;20655;-88
2023/10/24 17:50:58;;;;;;;2.57;1.23;;;20.60;65.00;;;;;;6199816;23;20257;-83
2023/10/24 18:01:56;;;;;;;1.80;1.57;;;20.50;65.50;;;;;;6080083;23;20174;-85
2023/10/24 18:08:24;;;;;;;1.33;1.13;;;20.30;66.60;;;;;;6143571;23;20180;-87
2023/10/24 18:15:06;;;;;;;1.27;1.17;;;20.20;66.60;;;;;;6047123;23;20181;-83
2023/10/24 18:28:35;;;;;;;1.70;1.47;;;20.10;66.80;;;;;;6099095;23;20639;-84
2023/10/24 18:35:22;;;;;;;1.17;1.07;;;20.00;66.90;;;;;;6147120;23;20570;-84
2023/10/24 18:41:57;;;;;;;7.03;2.30;;;20.00;67.00;;;;;;6174276;23;20222;-86
2023/10/24 18:48:55;;;;;;;2.03;1.83;;;19.90;67.40;;;;;;6060725;23;20561;-85
2023/10/24 18:52:35;;;;;;;3.00;1.60;;;19.90;67.40;;;;;;5977456;23;20175;-86
2023/10/24 18:55:45;;;;;;;3.17;1.33;;;19.80;67.40;;;;;;6041604;23;20218;-84
2023/10/24 19:02:12;;;;;;;1.70;1.20;;;19.80;67.50;;;;;;6203802;23;20163;-85
2023/10/24 19:05:38;;;;;;;;;;;;;;;;;;;;;
2023/10/24 19:13:04;;;;;;;2.43;2.23;;;19.70;68.00;;;;;;6049364;23;20218;-86
2023/10/24 19:16:16;;;;;;;1.50;1.23;;;19.70;68.10;;;;;;5966415;23;20179;-86
2023/10/24 19:32:31;;;;;;;2.27;1.87;;;19.60;68.60;;;;;;6053456;23;20262;-83
2023/10/24 19:35:53;;;;;;;1.33;1.23;;;19.60;68.80;;;;;;6091801;22;20203;-85
2023/10/24 19:42:32;;;;;;;1.33;1.23;;;19.60;69.20;;;;;;6029134;23;20728;-88
2023/10/24 19:46:13;;;;;;;1.33;1.23;;;19.50;69.60;;;;;;6027335;23;20736;-85
2023/10/24 20:01:02;;;;;;;1.73;1.63;;;19.50;69.50;;;;;;5945459;23;20185;-85
2023/10/24 20:08:07;;;;;;;3.30;1.57;;;19.40;70.00;;;;;;6207304;23;20202;-86
2023/10/24 20:11:35;;;;;;;;;;;;;;;;;;;;;
2023/10/24 20:18:52;;;;;;;;;;;;;;;;;;;;;
2023/10/24 20:27:56;;;;;;;5.50;2.20;;;19.30;70.50;;;;;;6176273;23;20987;-85
2023/10/24 20:30:51;;;;;;;2.27;2.00;;;19.20;70.50;;;;;;6136924;23;20179;-85
2023/10/24 20:33:54;;;;;;;3.50;2.13;;;19.20;70.50;;;;;;6179642;23;20648;-87
2023/10/24 20:36:44;;;;;;;2.20;2.00;;;19.20;70.50;;;;;;6161018;23;20239;-86
2023/10/24 20:39:44;;;;;;;3.70;2.20;;;19.20;70.50;;;;;;6181539;23;20472;-85
2023/10/24 20:42:19;;;;;;;3.43;1.53;;;19.20;70.50;;;;;;6179297;23;20484;-84
2023/10/24 20:44:49;;;;;;;1.53;1.43;;;19.20;70.60;;;;;;6179380;23;20497;-84
2023/10/24 20:47:18;;;;;;;2.50;1.83;;;19.20;70.80;;;;;;6183250;23;20538;-86
2023/10/24 20:49:47;;;;;;;3.10;2.07;;;19.20;70.80;;;;;;6181859;23;20184;-85
2023/10/24 20:52:16;;;;;;;2.03;1.17;;;19.10;71.00;;;;;;6180658;23;20164;-88
2023/10/24 20:54:44;;;;;;;1.20;1.10;;;19.10;71.30;;;;;;6178062;23;20497;-86
2023/10/24 20:57:15;;;;;;;2.13;1.93;;;19.10;71.70;;;;;;6180376;23;20271;-85
2023/10/24 20:59:43;;;;;;;2.40;2.03;;;19.10;71.80;;;;;;6178639;23;20768;-86
2023/10/24 21:02:15;;;;;;;2.97;2.17;;;19.10;71.80;;;;;;6180499;23;20207;-85
2023/10/24 21:04:43;;;;;;;7.60;2.30;;;19.10;71.70;;;;;;6178397;23;20171;-86
2023/10/24 21:07:12;;;;;;;2.63;1.87;;;19.00;71.80;;;;;;6179001;23;20235;-85
2023/10/24 21:09:41;;;;;;;1.33;1.23;;;19.00;71.90;;;;;;6181484;23;20160;-84
2023/10/24 21:12:11;;;;;;;2.80;1.83;;;19.00;71.80;;;;;;6181606;23;20163;-85
2023/10/24 21:14:39;;;;;;;2.93;1.73;;;19.00;71.80;;;;;;6182511;23;20243;-86
2023/10/24 21:17:08;;;;;;;3.67;1.60;;;19.00;71.90;;;;;;6182564;23;20251;-85
2023/10/24 21:19:40;;;;;;;8.77;3.60;;;19.00;72.00;;;;;;6183308;23;20175;-86
2023/10/24 21:22:08;;;;;;;2.87;1.63;;;19.00;71.90;;;;;;6180578;23;20187;-85
2023/10/24 21:24:38;;;;;;;3.47;1.97;;;19.00;71.90;;;;;;6180637;23;20198;-85
2023/10/24 21:27:07;;;;;;;4.93;2.67;;;19.00;71.90;;;;;;6179417;23;20199;-84
2023/10/24 21:29:35;;;;;;;3.93;2.70;;;19.00;72.20;;;;;;6179494;23;20164;-84
2023/10/24 21:32:03;;;;;;;21.20;1.70;;;19.00;72.20;;;;;;6180521;23;20614;-86
2023/10/24 21:34:32;;;;;;;3.83;1.87;;;18.90;72.20;;;;;;6179006;23;20171;-85
2023/10/24 21:37:02;;;;;;;2.60;1.93;;;18.90;72.20;;;;;;6180178;23;20235;-87
2023/10/24 21:39:33;;;;;;;2.27;1.60;;;18.90;72.30;;;;;;6181387;23;20168;-84
2023/10/24 21:42:01;;;;;;;5.60;2.90;;;18.90;72.30;;;;;;6178881;23;20199;-85
2023/10/24 21:44:30;;;;;;;4.60;2.23;;;18.90;72.50;;;;;;6178309;23;20190;-84
2023/10/24 21:47:15;;;;;;;2.53;2.33;;;18.90;72.50;;;;;;6179057;23;20270;-87
2023/10/24 21:49:44;;;;;;;1.80;1.70;;;18.90;72.60;;;;;;6178138;23;20168;-84
2023/10/24 21:52:14;;;;;;;2.37;1.33;;;18.90;72.60;;;;;;6180373;23;20172;-83
2023/10/24 21:54:45;;;;;;;1.67;1.53;;;18.80;72.50;;;;;;6179983;23;20595;-84
2023/10/24 21:57:14;;;;;;;2.17;1.90;;;18.80;72.50;;;;;;6177509;23;20172;-85
2023/10/24 21:59:42;;;;;;;1.87;1.77;;;18.80;72.50;;;;;;6179245;23;20195;-85
2023/10/24 22:02:12;;;;;;;2.43;2.17;;;18.80;72.50;;;;;;6180573;23;20178;-84
2023/10/24 22:04:41;;;;;;;2.57;1.87;;;18.80;72.70;;;;;;6178870;23;20884;-85
2023/10/24 22:07:10;;;;;;;3.10;2.80;;;18.70;72.70;;;;;;6179044;23;20195;-87
2023/10/24 22:09:42;;;;;;;4.43;1.30;;;18.80;72.70;;;;;;6178296;23;20180;-85
2023/10/24 22:12:12;;;;;;;2.57;2.33;;;18.70;72.70;;;;;;6177609;23;20202;-86
2023/10/24 22:14:40;;;;;;;2.63;2.03;;;18.70;72.70;;;;;;6178863;23;20186;-87
2023/10/24 22:17:09;;;;;;;2.63;1.73;;;18.70;72.60;;;;;;6179750;23;20656;-84
2023/10/24 22:19:40;;;;;;;5.63;2.07;;;18.70;72.60;;;;;;6178023;23;20249;-86
2023/10/24 22:22:10;;;;;;;4.17;2.27;;;18.70;72.70;;;;;;6179082;23;20182;-86
2023/10/24 22:24:39;;;;;;;4.27;2.40;;;18.70;72.80;;;;;;6179537;23;20226;-84
2023/10/24 22:27:09;;;;;;;1.67;1.57;;;18.70;72.80;;;;;;6178929;23;20176;-86
2023/10/24 22:29:38;;;;;;;2.97;2.20;;;18.70;72.80;;;;;;6178872;23;20175;-85
2023/10/24 22:32:08;;;;;;;9.20;2.43;;;18.70;72.80;;;;;;6179576;23;20172;-87
2023/10/24 22:34:37;;;;;;;2.07;1.70;;;18.70;72.80;;;;;;6179030;23;20222;-85
2023/10/24 22:37:06;;;;;;;4.27;3.37;;;18.70;72.80;;;;;;6180120;23;20175;-86
2023/10/24 22:39:34;;;;;;;1.60;0.97;;;18.80;72.90;;;;;;6181692;23;20199;-86
2023/10/24 22:42:03;;;;;;;5.63;1.37;;;18.80;72.90;;;;;;6181245;23;20170;-86
2023/10/24 22:44:34;;;;;;;3.40;2.20;;;18.80;72.90;;;;;;6179561;23;20622;-84
2023/10/24 22:47:03;;;;;;;2.40;1.60;;;18.80;72.90;;;;;;6180296;23;20171;-87
2023/10/24 22:49:31;;;;;;;2.73;1.60;;;18.80;72.90;;;;;;6179577;23;20223;-85
2023/10/24 22:52:01;;;;;;;3.13;1.90;;;18.80;72.90;;;;;;6177932;23;20345;-85
2023/10/24 22:54:30;;;;;;;1.37;1.27;;;18.80;72.90;;;;;;6181211;23;20171;-85
2023/10/24 22:56:59;;;;;;;1.93;1.60;;;18.80;73.00;;;;;;6180994;23;20168;-84
2023/10/24 22:59:28;;;;;;;8.77;2.63;;;18.80;73.20;;;;;;6178176;23;20176;-85
2023/10/24 23:01:58;;;;;;;2.23;1.73;;;18.80;73.50;;;;;;6178544;23;20621;-87
2023/10/24 23:04:31;;;;;;;1.80;1.27;;;18.80;73.40;;;;;;6178566;23;20168;-86
2023/10/24 23:07:00;;;;;;;1.73;1.30;;;18.70;73.30;;;;;;6178469;23;20183;-86
2023/10/24 23:09:29;;;;;;;3.47;1.27;;;18.70;73.30;;;;;;6178548;23;20200;-86
2023/10/24 23:11:58;;;;;;;6.43;3.07;;;18.70;73.30;;;;;;6178153;23;20178;-85
2023/10/24 23:14:28;;;;;;;1.30;1.20;;;18.70;73.40;;;;;;6178909;23;20164;-87
2023/10/24 23:16:58;;;;;;;2.03;1.40;;;18.70;73.40;;;;;;6178798;23;20400;-86
2023/10/24 23:19:28;;;;;;;1.10;1.00;;;18.70;73.90;;;;;;6178083;23;20196;-85
2023/10/24 23:21:57;;;;;;;7.83;2.23;;;18.70;74.00;;;;;;6179709;23;20520;-86
2023/10/24 23:24:26;;;;;;;2.50;2.23;;;18.70;74.20;;;;;;6179146;23;20195;-87
2023/10/24 23:26:55;;;;;;;2.10;1.57;;;18.60;74.50;;;;;;6179973;23;20168;-87
2023/10/24 23:29:24;;;;;;;1.30;1.20;;;18.60;74.30;;;;;;6179124;23;20205;-85
2023/10/24 23:31:52;;;;;;;2.70;1.23;;;18.60;74.40;;;;;;6179287;23;20259;-87
2023/10/24 23:34:24;;;;;;;1.43;1.13;;;18.60;74.60;;;;;;6178771;23;20226;-86
2023/10/24 23:36:53;;;;;;;0.73;0.73;;;18.60;74.60;;;;;;6180688;23;20175;-86
2023/10/24 23:39:23;;;;;;;2.33;1.97;;;18.60;74.60;;;;;;6178796;23;20176;-85
2023/10/24 23:41:52;;;;;;;1.37;1.27;;;18.60;74.50;;;;;;6178914;23;20171;-87
2023/10/24 23:44:21;;;;;;;4.00;2.80;;;18.60;74.40;;;;;;6179474;23;20172;-87
2023/10/24 23:46:51;;;;;;;1.87;0.67;;;18.60;74.30;;;;;;6178033;23;20548;-85
2023/10/24 23:49:20;;;;;;;2.03;1.40;;;18.60;74.30;;;;;;6152006;23;20193;-85
2023/10/24 23:51:51;;;;;;;0.90;0.70;;;18.60;74.30;;;;;;6175029;23;20247;-85
2023/10/24 23:54:19;;;;;;;0.70;0.70;;;18.60;74.10;;;;;;6176918;23;20263;-85
2023/10/24 23:56:48;;;;;;;3.73;1.73;;;18.50;74.10;;;;;;6174854;23;20585;-87
2023/10/24 23:59:17;;;;;;;8.67;1.53;;;18.60;74.10;;;;;;6176253;23;20255;-84
